createdAt,value
2018-06-25T00:00:50.677Z,101633.34
2018-06-25T00:03:20.336Z,101636.98
2018-06-25T00:05:49.677Z,101631.83
2018-06-25T00:08:19.283Z,101638.05
2018-06-25T00:10:48.906Z,101633.55
2018-06-25T00:13:18.450Z,101636.23
2018-06-25T00:15:48.133Z,101629.91
2018-06-25T00:18:19.693Z,101632.11
2018-06-25T00:20:49.016Z,101627.23
2018-06-25T00:23:18.425Z,101621.87
2018-06-25T00:25:47.767Z,101623.11
2018-06-25T00:28:17.444Z,101624.55
2018-06-25T00:30:47.011Z,101625.41
2018-06-25T00:33:16.507Z,101632.20
2018-06-25T00:35:45.885Z,101632.80
2018-06-25T00:38:15.466Z,101626.95
2018-06-25T00:40:44.864Z,101630.87
2018-06-25T00:43:14.453Z,101625.23
2018-06-25T00:45:43.851Z,101616.92
2018-06-25T00:48:13.479Z,101624.00
2018-06-25T00:50:43.043Z,101626.47
2018-06-25T00:53:12.834Z,101628.94
2018-06-25T00:55:42.368Z,101622.14
2018-06-25T00:58:11.974Z,101630.00
2018-06-25T01:00:41.454Z,101621.48
2018-06-25T01:03:10.917Z,101618.12
2018-06-25T01:05:40.489Z,101619.77
2018-06-25T01:08:10.109Z,101619.66
2018-06-25T01:10:39.956Z,101624.16
2018-06-25T01:13:09.407Z,101627.91
2018-06-25T01:15:38.783Z,101627.13
2018-06-25T01:18:08.878Z,101627.33
2018-06-25T01:20:38.436Z,101629.73
2018-06-25T01:23:08.264Z,101627.64
2018-06-25T01:25:37.959Z,101624.96
2018-06-25T01:28:07.584Z,101626.47
2018-06-25T01:30:37.501Z,101621.22
2018-06-25T01:33:06.992Z,101620.94
2018-06-25T01:35:36.540Z,101614.41
2018-06-25T01:38:07.389Z,101616.23
2018-06-25T01:40:37.042Z,101613.45
2018-06-25T01:43:06.527Z,101614.25
2018-06-25T01:45:35.971Z,101615.38
2018-06-25T01:48:05.889Z,101620.15
2018-06-25T01:50:35.217Z,101620.91
2018-06-25T01:53:04.581Z,101622.45
2018-06-25T01:55:33.986Z,101620.36
2018-06-25T01:58:03.267Z,101623.04
2018-06-25T02:00:32.564Z,101624.75
2018-06-25T02:03:01.978Z,101624.96
2018-06-25T02:05:31.258Z,101621.91
2018-06-25T02:08:00.515Z,101617.41
2018-06-25T02:10:29.775Z,101622.36
2018-06-25T02:12:59.046Z,101623.31
2018-06-25T02:15:28.341Z,101614.31
2018-06-25T02:17:57.873Z,101612.98
2018-06-25T02:20:27.227Z,101606.38
2018-06-25T02:22:56.678Z,101601.88
2018-06-25T02:25:25.920Z,101603.53
2018-06-25T02:27:55.277Z,101608.30
2018-06-25T02:30:24.680Z,101608.09
2018-06-25T02:32:53.998Z,101614.58
2018-06-25T02:35:23.281Z,101609.53
2018-06-25T02:37:52.518Z,101608.46
2018-06-25T02:40:21.921Z,101609.59
2018-06-25T02:42:51.176Z,101600.11
2018-06-25T02:45:20.478Z,101608.23
2018-06-25T02:47:50.097Z,101612.53
2018-06-25T02:50:19.397Z,101617.20
2018-06-25T02:52:48.747Z,101607.36
2018-06-25T02:55:18.041Z,101612.31
2018-06-25T02:57:47.305Z,101621.22
2018-06-25T03:00:16.581Z,101624.38
2018-06-25T03:02:46.331Z,101631.19
2018-06-25T03:05:15.708Z,101640.20
2018-06-25T03:07:45.123Z,101639.98
2018-06-25T03:10:14.495Z,101633.00
2018-06-25T03:12:43.956Z,101634.44
2018-06-25T03:15:13.544Z,101631.77
2018-06-25T03:17:43.109Z,101625.06
2018-06-25T03:20:13.500Z,101628.02
2018-06-25T03:22:42.945Z,101630.48
2018-06-25T03:25:12.794Z,101625.20
2018-06-25T03:27:42.191Z,101625.52
2018-06-25T03:30:11.515Z,101622.99
2018-06-25T03:32:41.004Z,101618.52
2018-06-25T03:35:10.375Z,101613.16
2018-06-25T03:37:40.726Z,101614.50
2018-06-25T03:40:11.373Z,101615.84
2018-06-25T03:42:40.864Z,101607.38
2018-06-25T03:45:10.290Z,101610.26
2018-06-25T03:47:39.654Z,101617.13
2018-06-25T03:50:09.313Z,101615.97
2018-06-25T03:52:38.717Z,101625.14
2018-06-25T03:55:08.275Z,101634.80
2018-06-25T03:57:37.725Z,101630.97
2018-06-25T04:00:07.563Z,101634.67
2018-06-25T04:02:37.184Z,101647.49
2018-06-25T04:05:06.706Z,101648.24
2018-06-25T04:07:36.159Z,101645.53
2018-06-25T04:10:06.158Z,101645.69
2018-06-25T04:12:35.784Z,101650.28
2018-06-25T04:15:05.661Z,101647.86
2018-06-25T04:17:35.336Z,101644.95
2018-06-25T04:20:04.906Z,101645.03
2018-06-25T04:22:34.175Z,101646.16
2018-06-25T04:25:03.887Z,101655.98
2018-06-25T04:27:33.185Z,101656.11
2018-06-25T04:30:02.556Z,101652.12
2018-06-25T04:32:31.854Z,101650.63
2018-06-25T04:35:01.100Z,101659.12
2018-06-25T04:37:30.373Z,101661.70
2018-06-25T04:40:00.042Z,101660.84
2018-06-25T04:42:29.257Z,101655.14
2018-06-25T04:44:58.595Z,101660.51
2018-06-25T04:47:27.889Z,101660.99
2018-06-25T04:49:57.123Z,101664.13
2018-06-25T04:52:26.417Z,101660.23
2018-06-25T04:54:55.734Z,101661.58
2018-06-25T04:57:25.140Z,101662.25
2018-06-25T04:59:54.470Z,101654.08
2018-06-25T05:02:23.993Z,101661.12
2018-06-25T05:04:53.327Z,101654.77
2018-06-25T05:07:23.393Z,101650.89
2018-06-25T05:09:52.832Z,101650.86
2018-06-25T05:12:22.115Z,101652.41
2018-06-25T05:14:52.598Z,101647.31
2018-06-25T05:17:22.130Z,101651.54
2018-06-25T05:19:51.537Z,101665.78
2018-06-25T05:22:20.828Z,101662.97
2018-06-25T05:24:50.276Z,101669.19
2018-06-25T05:27:19.681Z,101661.25
2018-06-25T05:29:49.094Z,101664.02
2018-06-25T05:32:18.493Z,101662.84
2018-06-25T05:34:47.864Z,101669.83
2018-06-25T05:37:17.587Z,101668.86
2018-06-25T05:39:47.152Z,101673.66
2018-06-25T05:42:21.425Z,101673.93
2018-06-25T05:44:52.165Z,101667.86
2018-06-25T05:47:22.051Z,101675.94
2018-06-25T05:49:51.556Z,101676.47
2018-06-25T05:52:21.168Z,101669.05
2018-06-25T05:54:50.645Z,101673.95
2018-06-25T05:57:20.147Z,101672.41
2018-06-25T05:59:50.017Z,101668.37
2018-06-25T06:02:19.690Z,101669.78
2018-06-25T06:04:49.078Z,101668.13
2018-06-25T06:07:18.847Z,101667.14
2018-06-25T06:09:48.240Z,101672.69
2018-06-25T06:12:17.650Z,101674.03
2018-06-25T06:14:47.053Z,101670.70
2018-06-25T06:17:16.412Z,101671.92
2018-06-25T06:19:45.742Z,101669.59
2018-06-25T06:22:15.372Z,101676.56
2018-06-25T06:24:44.705Z,101670.80
2018-06-25T06:27:15.260Z,101680.34
2018-06-25T06:29:44.697Z,101686.84
2018-06-25T06:32:14.277Z,101690.14
2018-06-25T06:34:43.747Z,101694.79
2018-06-25T06:37:13.237Z,101684.63
2018-06-25T06:39:43.011Z,101688.88
2018-06-25T06:42:12.448Z,101692.55
2018-06-25T06:44:41.885Z,101699.81
2018-06-25T06:47:11.331Z,101695.16
2018-06-25T06:49:40.939Z,101696.59
2018-06-25T06:52:10.708Z,101702.30
2018-06-25T06:54:40.303Z,101700.25
2018-06-25T06:57:09.753Z,101697.08
2018-06-25T06:59:39.305Z,101704.66
2018-06-25T07:02:08.867Z,101702.25
2018-06-25T07:04:38.278Z,101699.16
2018-06-25T07:07:07.693Z,101700.55
2018-06-25T07:09:37.164Z,101703.73
2018-06-25T07:12:06.626Z,101700.42
2018-06-25T07:14:36.723Z,101706.17
2018-06-25T07:17:06.297Z,101711.19
2018-06-25T07:19:35.800Z,101702.66
2018-06-25T07:22:05.559Z,101702.23
2018-06-25T07:24:34.896Z,101700.17
2018-06-25T07:27:04.199Z,101705.30
2018-06-25T07:29:33.685Z,101709.13
2018-06-25T07:32:02.963Z,101702.62
2018-06-25T07:34:33.096Z,101705.94
2018-06-25T07:37:02.403Z,101710.71
2018-06-25T07:39:31.670Z,101710.35
2018-06-25T07:42:01.059Z,101707.03
2018-06-25T07:44:30.670Z,101706.21
2018-06-25T07:46:59.989Z,101708.30
2018-06-25T07:49:29.347Z,101713.43
2018-06-25T07:51:59.121Z,101710.66
2018-06-25T07:54:28.484Z,101705.63
2018-06-25T07:56:57.784Z,101703.07
2018-06-25T07:59:27.481Z,101704.25
2018-06-25T08:01:56.773Z,101696.52
2018-06-25T08:04:26.078Z,101707.47
2018-06-25T08:06:55.398Z,101707.11
2018-06-25T08:09:24.698Z,101703.27
2018-06-25T08:11:53.958Z,101702.66
2018-06-25T08:14:23.284Z,101706.02
2018-06-25T08:16:52.766Z,101701.53
2018-06-25T08:19:22.082Z,101708.14
2018-06-25T08:21:51.592Z,101708.02
2018-06-25T08:24:20.862Z,101708.76
2018-06-25T08:26:50.222Z,101710.77
2018-06-25T08:29:20.073Z,101715.55
2018-06-25T08:31:49.488Z,101726.89
2018-06-25T08:34:19.021Z,101725.71
2018-06-25T08:36:48.817Z,101721.88
2018-06-25T08:39:18.445Z,101728.01
2018-06-25T08:41:47.927Z,101729.54
2018-06-25T08:44:17.512Z,101731.66
2018-06-25T08:46:46.949Z,101736.17
2018-06-25T08:49:16.702Z,101737.06
2018-06-25T08:51:46.250Z,101741.76
2018-06-25T08:54:15.724Z,101748.37
2018-06-25T08:56:45.126Z,101746.76
2018-06-25T08:59:14.548Z,101754.99
2018-06-25T09:01:43.943Z,101752.02
2018-06-25T09:04:13.414Z,101757.20
2018-06-25T09:06:42.916Z,101759.17
2018-06-25T09:09:13.580Z,101758.91
2018-06-25T09:11:43.055Z,101759.41
2018-06-25T09:14:12.507Z,101754.14
2018-06-25T09:16:42.013Z,101758.41
2018-06-25T09:19:11.543Z,101762.50
2018-06-25T09:21:41.560Z,101764.56
2018-06-25T09:24:11.018Z,101768.67
2018-06-25T09:26:41.553Z,101761.29
2018-06-25T09:29:12.033Z,101761.78
2018-06-25T09:31:41.432Z,101767.48
2018-06-25T09:34:16.572Z,101768.41
2018-06-25T09:36:46.063Z,101763.77
2018-06-25T09:39:15.806Z,101776.03
2018-06-25T09:41:45.892Z,101767.48
2018-06-25T09:44:15.108Z,101768.82
2018-06-25T09:46:44.594Z,101762.70
2018-06-25T09:49:14.143Z,101768.70
2018-06-25T09:51:43.552Z,101766.50
2018-06-25T09:54:13.103Z,101758.13
2018-06-25T09:56:43.075Z,101752.73
2018-06-25T09:59:12.834Z,101762.37
2018-06-25T10:01:42.492Z,101756.05
2018-06-25T10:04:12.235Z,101760.30
2018-06-25T10:06:41.872Z,101763.85
2018-06-25T10:09:12.668Z,101762.48
2018-06-25T10:11:42.226Z,101752.55
2018-06-25T10:14:11.704Z,101763.31
2018-06-25T10:16:41.286Z,101765.25
2018-06-25T10:19:11.025Z,101759.92
2018-06-25T10:21:40.705Z,101763.78
2018-06-25T10:24:10.465Z,101767.03
2018-06-25T10:26:40.481Z,101765.84
2018-06-25T10:29:09.948Z,101772.30
2018-06-25T10:31:39.432Z,101762.63
2018-06-25T10:34:09.157Z,101769.14
2018-06-25T10:36:38.762Z,101757.02
2018-06-25T10:39:10.118Z,101758.67
2018-06-25T10:41:40.020Z,101759.64
2018-06-25T10:44:10.241Z,101761.34
2018-06-25T10:46:40.039Z,101765.88
2018-06-25T10:49:09.676Z,101759.61
2018-06-25T10:51:39.269Z,101763.90
2018-06-25T10:54:09.328Z,101763.23
2018-06-25T10:56:39.164Z,101766.30
2018-06-25T10:59:08.640Z,101764.11
2018-06-25T11:01:38.442Z,101762.75
2018-06-25T11:04:08.208Z,101752.51
2018-06-25T11:06:37.864Z,101748.94
2018-06-25T11:09:10.840Z,101752.86
2018-06-25T11:11:40.332Z,101747.56
2018-06-25T11:14:10.038Z,101749.78
2018-06-25T11:16:39.600Z,101760.55
2018-06-25T11:19:09.288Z,101755.89
2018-06-25T11:21:38.999Z,101750.45
2018-06-25T11:24:08.795Z,101757.27
2018-06-25T11:26:38.681Z,101761.04
2018-06-25T11:29:08.716Z,101756.59
2018-06-25T11:31:38.336Z,101754.89
2018-06-25T11:34:07.857Z,101756.77
2018-06-25T11:36:37.845Z,101744.49
2018-06-25T11:39:09.528Z,101739.31
2018-06-25T11:41:39.137Z,101754.66
2018-06-25T11:44:08.930Z,101745.33
2018-06-25T11:46:38.912Z,101742.30
2018-06-25T11:49:08.681Z,101735.39
2018-06-25T11:51:39.695Z,101734.44
2018-06-25T11:54:09.541Z,101738.84
2018-06-25T11:56:39.203Z,101737.84
2018-06-25T11:59:08.820Z,101744.44
2018-06-25T12:01:38.444Z,101738.86
2018-06-25T12:04:08.272Z,101744.78
2018-06-25T12:06:38.942Z,101743.27
2018-06-25T12:09:09.970Z,101745.70
2018-06-25T12:11:39.610Z,101752.65
2018-06-25T12:14:09.617Z,101752.37
2018-06-25T12:16:39.744Z,101749.96
2018-06-25T12:19:09.494Z,101751.91
2018-06-25T12:21:39.441Z,101752.98
2018-06-25T12:24:09.139Z,101756.75
2018-06-25T12:26:38.532Z,101762.28
2018-06-25T12:29:08.827Z,101758.02
2018-06-25T12:31:38.289Z,101758.68
2018-06-25T12:34:07.743Z,101754.52
2018-06-25T12:36:38.174Z,101763.31
2018-06-25T12:39:09.394Z,101766.02
2018-06-25T12:41:39.257Z,101770.04
2018-06-25T12:44:09.248Z,101778.20
2018-06-25T12:46:39.703Z,101779.80
2018-06-25T12:49:09.463Z,101779.52
2018-06-25T12:51:39.089Z,101786.48
2018-06-25T12:54:08.722Z,101784.16
2018-06-25T12:56:39.305Z,101783.52
2018-06-25T12:59:09.125Z,101787.19
2018-06-25T13:01:38.749Z,101786.72
2018-06-25T13:04:08.848Z,101791.38
2018-06-25T13:06:38.561Z,101803.43
2018-06-25T13:09:12.261Z,101811.18
2018-06-25T13:11:42.102Z,101811.49
2018-06-25T13:14:11.828Z,101811.41
2018-06-25T13:16:42.188Z,101823.02
2018-06-25T13:19:11.787Z,101826.18
2018-06-25T13:21:41.370Z,101833.75
2018-06-25T13:24:11.306Z,101832.49
2018-06-25T13:26:41.149Z,101827.63
2018-06-25T13:29:12.190Z,101828.09
2018-06-25T13:31:41.753Z,101844.34
2018-06-25T13:34:11.463Z,101845.48
2018-06-25T13:36:41.837Z,101841.96
2018-06-25T13:39:11.396Z,101836.17
2018-06-25T13:41:41.013Z,101838.92
2018-06-25T13:44:11.171Z,101844.02
2018-06-25T13:46:41.295Z,101849.57
2018-06-25T13:49:10.943Z,101845.50
2018-06-25T13:51:40.464Z,101845.94
2018-06-25T13:54:10.071Z,101839.70
2018-06-25T13:56:39.778Z,101847.19
2018-06-25T13:59:09.682Z,101856.28
2018-06-25T14:01:39.305Z,101854.75
2018-06-25T14:04:09.179Z,101857.13
2018-06-25T14:06:39.340Z,101867.50
2018-06-25T14:09:11.009Z,101868.05
2018-06-25T14:11:41.665Z,101861.66
2018-06-25T14:14:11.302Z,101859.75
2018-06-25T14:16:41.263Z,101861.45
2018-06-25T14:19:11.583Z,101858.91
2018-06-25T14:21:41.247Z,101863.13
2018-06-25T14:24:16.876Z,101863.05
2018-06-25T14:26:46.504Z,101865.41
2018-06-25T14:29:21.391Z,101861.85
2018-06-25T14:31:53.499Z,101862.16
2018-06-25T14:34:23.230Z,101865.34
2018-06-25T14:36:52.844Z,101874.22
2018-06-25T14:39:22.198Z,101874.89
2018-06-25T14:41:52.491Z,101876.43
2018-06-25T14:44:21.953Z,101875.80
2018-06-25T14:46:51.276Z,101877.52
2018-06-25T14:49:20.616Z,101885.14
2018-06-25T14:51:50.256Z,101880.13
2018-06-25T14:54:19.689Z,101879.43
2018-06-25T14:56:49.173Z,101884.39
2018-06-25T14:59:18.706Z,101877.31
2018-06-25T15:01:48.178Z,101875.73
2018-06-25T15:04:17.703Z,101872.91
2018-06-25T15:06:47.720Z,101866.73
2018-06-25T15:09:17.408Z,101869.08
2018-06-25T15:11:47.098Z,101873.76
2018-06-25T15:14:16.819Z,101874.11
2018-06-25T15:16:46.361Z,101876.28
2018-06-25T15:19:16.296Z,101871.32
2018-06-25T15:21:46.534Z,101876.50
2018-06-25T15:24:18.282Z,101869.16
2018-06-25T15:26:48.209Z,101874.83
2018-06-25T15:29:17.845Z,101868.66
2018-06-25T15:31:47.405Z,101866.95
2018-06-25T15:34:16.876Z,101870.01
2018-06-25T15:36:46.568Z,101867.40
2018-06-25T15:39:16.481Z,101871.91
2018-06-25T15:41:46.008Z,101868.25
2018-06-25T15:44:15.838Z,101867.04
2018-06-25T15:46:45.571Z,101866.81
2018-06-25T15:49:15.459Z,101869.52
2018-06-25T15:51:45.379Z,101869.16
2018-06-25T15:54:14.932Z,101863.91
2018-06-25T15:56:44.568Z,101868.58
2018-06-25T15:59:14.213Z,101866.14
2018-06-25T16:01:44.332Z,101857.53
2018-06-25T16:04:13.994Z,101860.73
2018-06-25T16:06:43.838Z,101860.59
2018-06-25T16:09:13.623Z,101860.37
2018-06-25T16:11:43.274Z,101859.77
2018-06-25T16:14:12.905Z,101858.90
2018-06-25T16:16:43.081Z,101854.60
2018-06-25T16:19:12.674Z,101858.66
2018-06-25T16:21:42.453Z,101846.73
2018-06-25T16:24:12.242Z,101854.98
2018-06-25T16:26:42.068Z,101853.00
2018-06-25T16:29:11.848Z,101861.59
2018-06-25T16:31:41.981Z,101858.16
2018-06-25T16:34:11.681Z,101845.91
2018-06-25T16:36:41.505Z,101844.67
2018-06-25T16:39:13.000Z,101846.02
2018-06-25T16:41:42.755Z,101854.50
2018-06-25T16:44:14.099Z,101852.39
2018-06-25T16:46:43.746Z,101846.89
2018-06-25T16:49:13.839Z,101849.57
2018-06-25T16:51:44.605Z,101847.95
2018-06-25T16:54:14.646Z,101846.89
2018-06-25T16:56:44.289Z,101850.33
2018-06-25T16:59:14.139Z,101855.95
2018-06-25T17:01:43.994Z,101858.91
2018-06-25T17:04:13.772Z,101852.91
2018-06-25T17:06:43.471Z,101855.12
2018-06-25T17:09:13.744Z,101857.30
2018-06-25T17:11:43.833Z,101856.95
2018-06-25T17:14:16.457Z,101856.45
2018-06-25T17:16:46.050Z,101860.39
2018-06-25T17:19:17.167Z,101849.72
2018-06-25T17:21:48.396Z,101856.83
2018-06-25T17:24:18.169Z,101849.34
2018-06-25T17:26:49.212Z,101849.33
2018-06-25T17:29:18.732Z,101853.39
2018-06-25T17:31:48.275Z,101864.80
2018-06-25T17:34:17.947Z,101859.64
2018-06-25T17:36:47.765Z,101857.42
2018-06-25T17:39:19.845Z,101852.88
2018-06-25T17:41:49.347Z,101846.50
2018-06-25T17:44:19.284Z,101845.78
2018-06-25T17:46:49.649Z,101828.12
2018-06-25T17:49:19.657Z,101831.56
2018-06-25T17:51:49.531Z,101830.31
2018-06-25T17:54:19.927Z,101834.25
2018-06-25T17:56:49.613Z,101842.09
2018-06-25T17:59:19.541Z,101842.85
2018-06-25T18:01:49.268Z,101847.76
2018-06-25T18:04:18.950Z,101857.09
2018-06-25T18:06:49.021Z,101859.53
2018-06-25T18:09:20.249Z,101859.52
2018-06-25T18:11:50.017Z,101861.00
2018-06-25T18:14:19.531Z,101863.44
2018-06-25T18:16:49.381Z,101865.77
2018-06-25T18:19:21.821Z,101865.63
2018-06-25T18:21:51.517Z,101872.38
2018-06-25T18:24:21.129Z,101874.91
2018-06-25T18:26:50.400Z,101869.77
2018-06-25T18:29:20.115Z,101868.78
2018-06-25T18:31:49.605Z,101876.88
2018-06-25T18:34:19.633Z,101875.53
2018-06-25T18:36:50.038Z,101866.52
2018-06-25T18:39:19.569Z,101864.56
2018-06-25T18:41:49.169Z,101870.29
2018-06-25T18:44:18.697Z,101877.52
2018-06-25T18:46:48.327Z,101884.41
2018-06-25T18:49:18.898Z,101886.74
2018-06-25T18:51:48.580Z,101883.28
2018-06-25T18:54:19.585Z,101878.87
2018-06-25T18:56:50.425Z,101879.20
2018-06-25T18:59:20.523Z,101884.59
2018-06-25T19:01:50.324Z,101891.20
2018-06-25T19:04:20.269Z,101889.08
2018-06-25T19:06:50.211Z,101888.59
2018-06-25T19:09:19.947Z,101889.44
2018-06-25T19:16:39.241Z,101886.86
2018-06-25T19:19:09.508Z,101883.64
2018-06-25T19:21:39.141Z,101893.31
2018-06-25T19:24:09.050Z,101896.08
2018-06-25T19:26:38.693Z,101897.91
2018-06-25T19:29:08.894Z,101904.58
2018-06-25T19:31:38.953Z,101900.91
2018-06-25T19:34:11.381Z,101910.95
2018-06-25T19:36:41.675Z,101911.61
2018-06-25T19:39:13.589Z,101916.59
2018-06-25T19:41:43.498Z,101926.52
2018-06-25T19:44:13.336Z,101924.17
2018-06-25T19:46:42.809Z,101926.13
2018-06-25T19:49:12.200Z,101933.23
2018-06-25T19:51:41.771Z,101934.83
2018-06-25T19:54:11.665Z,101940.78
2018-06-25T19:56:41.245Z,101938.77
2018-06-25T19:59:11.129Z,101938.02
2018-06-25T20:01:40.716Z,101938.02
2018-06-25T20:04:10.394Z,101936.08
2018-06-25T20:06:40.277Z,101941.46
2018-06-25T20:09:11.939Z,101938.33
2018-06-25T20:11:42.573Z,101947.89
2018-06-25T20:14:12.251Z,101946.95
2018-06-25T20:16:42.213Z,101948.87
2018-06-25T20:19:11.557Z,101945.13
2018-06-25T20:21:41.057Z,101942.91
2018-06-25T20:24:11.156Z,101945.59
2018-06-25T20:26:40.354Z,101939.55
2018-06-25T20:29:09.760Z,101938.25
2018-06-25T20:31:39.525Z,101945.16
2018-06-25T20:34:08.901Z,101950.80
2018-06-25T20:36:38.643Z,101955.09
2018-06-25T20:39:10.223Z,101946.03
2018-06-25T20:41:39.496Z,101944.06
2018-06-25T20:44:09.566Z,101944.98
2018-06-25T20:46:39.071Z,101953.43
2018-06-25T20:49:08.723Z,101956.30
2018-06-25T20:51:38.756Z,101951.16
2018-06-25T20:54:09.435Z,101955.32
2018-06-25T20:56:38.973Z,101964.09
2018-06-25T20:59:08.855Z,101966.33
2018-06-25T21:01:38.422Z,101967.38
2018-06-25T21:04:08.499Z,101968.36
2018-06-25T21:06:38.038Z,101966.75
2018-06-25T21:09:10.562Z,101957.06
2018-06-25T21:11:40.328Z,101956.14
2018-06-25T21:14:09.648Z,101957.80
2018-06-25T21:16:39.505Z,101970.52
2018-06-25T21:19:09.011Z,101963.18
2018-06-25T21:21:38.539Z,101962.24
2018-06-25T21:24:07.862Z,101967.52
2018-06-25T21:26:37.377Z,101970.16
2018-06-25T21:29:06.834Z,101971.50
2018-06-25T21:31:36.589Z,101966.16
2018-06-25T21:34:06.191Z,101973.16
2018-06-25T21:36:35.933Z,101969.83
2018-06-25T21:39:08.173Z,101969.54
2018-06-25T21:41:37.653Z,101976.34
2018-06-25T21:44:07.212Z,101975.68
2018-06-25T21:46:36.825Z,101979.45
2018-06-25T21:49:06.945Z,101978.15
2018-06-25T21:51:36.518Z,101985.84
2018-06-25T21:54:06.440Z,101990.38
2018-06-25T21:56:36.063Z,101990.38
2018-06-25T21:59:05.837Z,101988.83
2018-06-25T22:01:35.899Z,101994.30
2018-06-25T22:04:05.718Z,101994.30
2018-06-25T22:06:35.320Z,101988.28
2018-06-25T22:09:07.858Z,101996.23
2018-06-25T22:11:37.396Z,101997.80
2018-06-25T22:14:07.381Z,102002.09
2018-06-25T22:16:36.896Z,101999.33
2018-06-25T22:19:06.846Z,102000.73
2018-06-25T22:21:36.600Z,101996.70
2018-06-25T22:24:07.012Z,101997.08
2018-06-25T22:26:36.493Z,101989.79
2018-06-25T22:29:06.155Z,101990.71
2018-06-25T22:31:35.922Z,101994.80
2018-06-25T22:34:05.910Z,101994.02
2018-06-25T22:36:35.214Z,101991.44
2018-06-25T22:39:07.925Z,101986.19
2018-06-25T22:41:37.701Z,101983.98
2018-06-25T22:44:11.645Z,101985.56
2018-06-25T22:46:41.867Z,101973.39
2018-06-25T22:49:11.495Z,101981.72
2018-06-25T22:51:40.922Z,101984.71
2018-06-25T22:54:10.590Z,101989.30
2018-06-25T22:56:40.637Z,101992.85
2018-06-25T22:59:10.460Z,101995.36
2018-06-25T23:01:40.092Z,102000.25
2018-06-25T23:04:09.483Z,101999.39
2018-06-25T23:06:38.969Z,101999.53
2018-06-25T23:09:10.439Z,101997.44
2018-06-25T23:11:39.873Z,101986.22
2018-06-25T23:14:09.233Z,101985.36
2018-06-25T23:16:38.937Z,101995.04
2018-06-25T23:19:08.363Z,101991.11
2018-06-25T23:21:37.761Z,101990.66
2018-06-25T23:24:07.303Z,101997.38
2018-06-25T23:26:36.767Z,101993.16
2018-06-25T23:29:06.174Z,101986.81
2018-06-25T23:31:35.688Z,101998.05
2018-06-25T23:34:06.016Z,101999.52
2018-06-25T23:36:35.359Z,102008.08
2018-06-25T23:39:06.692Z,102003.09
2018-06-25T23:41:36.110Z,102000.94
2018-06-25T23:44:05.688Z,102005.03
2018-06-25T23:46:35.133Z,102004.91
2018-06-25T23:49:05.098Z,102003.94
2018-06-25T23:51:34.471Z,102005.85
2018-06-25T23:54:03.912Z,102007.46
2018-06-25T23:56:33.389Z,102010.53
2018-06-25T23:59:02.754Z,102002.33
